Time;durP1;ratioP1;P1;durP2;ratioP2;P2;SDS_P1;SDS_P2;PMS_P1;PMS_P2;Temp;Humidity;BMP_temperature;BMP_pressure;BME280_temperature;BME280_humidity;BME280_pressure;Samples;Min_cycle;Max_cycle;Signal;HPM_P1;HPM_P2
2022/04/27 00:01:45;;;;;;;5.43;3.97;;;;;;;16.95;35.96;101641.34;5026315;27;99059;-74
2022/04/27 00:04:11;;;;;;;5.70;3.55;;;;;;;17.02;36.10;101632.09;5018281;27;98975;-75
2022/04/27 00:06:38;;;;;;;4.15;3.38;;;;;;;17.03;35.92;101643.63;5022938;28;96757;-75
2022/04/27 00:09:06;;;;;;;5.95;3.90;;;;;;;16.58;36.84;101638.63;5029098;28;96909;-76
2022/04/27 00:11:33;;;;;;;5.75;3.90;;;;;;;16.80;36.54;101642.09;5029057;27;99052;-76
2022/04/27 00:14:00;;;;;;;9.30;4.05;;;;;;;16.59;36.74;101638.56;5029081;27;97756;-76
2022/04/27 00:16:27;;;;;;;7.03;3.97;;;;;;;16.66;36.71;101640.06;5028855;27;97487;-75
2022/04/27 00:18:54;;;;;;;7.32;3.92;;;;;;;16.69;36.83;101641.69;5031780;27;97142;-72
2022/04/27 00:21:20;;;;;;;6.47;3.90;;;;;;;16.76;36.63;101639.59;5028357;27;98083;-72
2022/04/27 00:23:46;;;;;;;4.35;3.58;;;;;;;16.69;36.83;101641.69;5032645;27;98290;-72
2022/04/27 00:26:14;;;;;;;6.07;4.03;;;;;;;16.94;36.35;101641.41;5031428;27;96914;-73
2022/04/27 00:28:41;;;;;;;5.97;4.10;;;;;;;16.93;36.40;101637.88;5037108;27;97219;-73
2022/04/27 00:31:07;;;;;;;8.05;4.05;;;;;;;16.77;36.78;101642.22;5026364;27;99232;-73
2022/04/27 00:33:33;;;;;;;5.93;4.00;;;;;;;16.89;36.61;101638.09;5032350;27;100729;-74
2022/04/27 00:36:00;;;;;;;11.43;4.53;;;;;;;16.82;36.75;101648.19;5031022;27;96795;-72
2022/04/27 00:38:27;;;;;;;7.32;3.80;;;;;;;16.59;37.13;101643.03;5024008;27;97904;-73
2022/04/27 00:40:53;;;;;;;6.80;4.05;;;;;;;16.44;37.41;101644.59;5035070;27;101212;-73
2022/04/27 00:46:18;;;;;;;8.52;4.32;;;;;;;16.43;37.75;101650.00;5079552;27;96806;-71
2022/04/27 00:48:45;;;;;;;5.43;3.47;;;;;;;16.60;37.23;101650.16;5052738;27;96868;-73
2022/04/27 00:51:22;;;;;;;7.05;4.22;;;;;;;16.56;37.32;101646.69;5062094;27;97848;-74
2022/04/27 00:53:49;;;;;;;9.57;4.20;;;;;;;16.51;37.68;101655.84;5055373;27;100465;-74
2022/04/27 00:56:17;;;;;;;5.28;4.18;;;;;;;15.31;39.71;101661.91;5044075;27;96841;-73
2022/04/27 00:58:44;;;;;;;6.78;4.72;;;;;;;15.69;39.48;101670.13;5044313;27;97253;-73
2022/04/27 01:01:11;;;;;;;6.18;4.45;;;;;;;15.66;39.26;101670.28;5042812;27;99954;-75
2022/04/27 01:03:38;;;;;;;7.07;4.63;;;;;;;15.41;39.83;101671.28;5048814;27;98917;-73
2022/04/27 01:06:05;;;;;;;4.60;4.05;;;;;;;15.14;40.11;101680.38;5043175;27;97300;-68
2022/04/27 01:08:32;;;;;;;9.38;4.28;;;;;;;14.65;41.45;101674.28;5044520;27;96929;-68
2022/04/27 01:11:00;;;;;;;9.43;4.07;;;;;;;14.66;41.66;101678.66;5038387;27;99084;-68
2022/04/27 01:13:27;;;;;;;7.60;4.20;;;;;;;15.36;40.30;101678.56;5039993;27;99021;-69
2022/04/27 01:15:54;;;;;;;9.02;4.75;;;;;;;15.65;39.55;101677.41;5042068;27;96821;-68
2022/04/27 01:18:20;;;;;;;8.40;4.35;;;;;;;15.60;39.63;101682.06;5044703;27;96878;-68
2022/04/27 01:20:50;;;;;;;8.93;4.70;;;;;;;15.55;39.66;101673.41;5040299;27;98904;-68
2022/04/27 01:23:17;;;;;;;9.05;4.45;;;;;;;15.11;40.32;101685.78;5039583;27;98041;-67
2022/04/27 01:25:49;;;;;;;10.27;4.50;;;;;;;15.38;40.09;101687.38;5044780;27;96842;-67
2022/04/27 01:28:17;;;;;;;8.95;4.40;;;;;;;15.47;40.18;101684.34;5040521;27;98801;-67
2022/04/27 01:30:44;;;;;;;7.55;4.50;;;;;;;15.04;41.15;101693.16;5046003;27;99102;-67
2022/04/27 01:33:11;;;;;;;5.18;3.97;;;;;;;15.33;40.44;101686.69;5043370;27;97652;-67
2022/04/27 01:35:37;;;;;;;12.00;5.35;;;;;;;15.00;40.96;101693.34;5045668;27;96923;-67
2022/04/27 01:38:07;;;;;;;6.38;5.13;;;;;;;15.29;40.25;101693.09;5044319;27;97200;-68
2022/04/27 01:40:33;;;;;;;6.57;4.80;;;;;;;15.41;40.23;101697.03;5044434;27;101852;-67
2022/04/27 01:43:00;;;;;;;8.32;4.53;;;;;;;15.28;40.51;101696.66;5046930;27;98730;-67
2022/04/27 01:45:26;;;;;;;10.23;6.30;;;;;;;14.92;41.31;101696.31;5041322;27;97547;-68
2022/04/27 01:47:53;;;;;;;13.30;5.60;;;;;;;14.87;41.49;101695.63;5048247;27;98826;-67
2022/04/27 01:50:20;;;;;;;9.55;6.38;;;;;;;14.66;41.79;101707.94;5037378;27;100890;-69
2022/04/27 01:55:32;;;;;;;9.57;5.43;;;;;;;15.07;41.08;101703.69;5035971;27;98216;-67
2022/04/27 01:57:59;;;;;;;9.20;5.72;;;;;;;15.03;41.24;101702.06;5025387;27;98240;-69
2022/04/27 02:00:25;;;;;;;10.15;6.28;;;;;;;14.81;41.65;101716.28;5023267;27;99272;-75
2022/04/27 02:02:52;;;;;;;15.15;6.78;;;;;;;14.83;41.58;101709.97;5022305;27;98553;-75
2022/04/27 02:05:18;;;;;;;11.55;5.85;;;;;;;14.60;42.16;101712.59;5028166;27;96766;-74
2022/04/27 02:07:45;;;;;;;11.63;6.15;;;;;;;14.72;41.86;101713.03;5023862;27;96826;-73
2022/04/27 02:10:11;;;;;;;11.52;6.22;;;;;;;14.52;42.42;101725.31;5035050;27;97117;-74
2022/04/27 02:12:39;;;;;;;12.30;6.63;;;;;;;14.88;41.82;101723.09;5029243;27;99141;-75
2022/04/27 02:15:09;;;;;;;11.55;6.53;;;;;;;14.83;41.73;101725.06;5029161;27;98045;-74
2022/04/27 02:17:35;;;;;;;7.60;5.93;;;;;;;14.28;42.63;101732.34;5031620;27;97545;-75
2022/04/27 02:20:01;;;;;;;12.10;6.07;;;;;;;14.21;43.04;101726.38;5032388;27;97631;-73
2022/04/27 02:22:28;;;;;;;12.63;7.30;;;;;;;14.41;42.49;101725.72;5027692;27;99094;-74
2022/04/27 02:24:54;;;;;;;9.57;6.78;;;;;;;14.62;42.04;101724.06;5026114;28;98550;-74
2022/04/27 02:27:21;;;;;;;11.48;5.88;;;;;;;14.49;42.33;101725.44;5021908;27;99053;-73
2022/04/27 02:29:49;;;;;;;10.57;5.95;;;;;;;13.88;43.10;101728.41;5027500;27;98968;-74
2022/04/27 02:32:16;;;;;;;9.70;6.57;;;;;;;14.07;43.03;101738.41;5022276;27;97346;-74
2022/04/27 02:34:42;;;;;;;7.80;5.80;;;;;;;14.12;42.91;101737.31;5027154;28;96716;-73
2022/04/27 02:37:09;;;;;;;12.25;6.35;;;;;;;14.10;42.74;101727.69;5028065;27;96808;-74
2022/04/27 02:39:35;;;;;;;9.55;6.20;;;;;;;13.72;43.44;101737.78;5024658;27;99359;-74
2022/04/27 02:42:02;;;;;;;13.77;6.70;;;;;;;14.03;42.87;101732.34;5029379;28;98031;-74
2022/04/27 02:44:28;;;;;;;10.50;6.28;;;;;;;14.16;42.30;101743.41;5026160;27;96910;-75
2022/04/27 02:46:58;;;;;;;9.60;6.55;;;;;;;14.39;41.79;101751.47;5028469;27;98973;-75
2022/04/27 02:52:08;;;;;;;7.55;5.85;;;;;;;14.47;40.79;101754.75;5037928;27;97301;-75
2022/04/27 02:54:35;;;;;;;14.77;7.07;;;;;;;14.83;40.23;101746.34;5031023;28;96744;-75
2022/04/27 02:57:02;;;;;;;9.32;6.47;;;;;;;14.41;40.98;101754.09;5032056;27;97721;-75
2022/04/27 02:59:28;;;;;;;17.55;6.00;;;;;;;14.34;41.34;101745.44;5031915;27;97729;-75
2022/04/27 03:01:56;;;;;;;11.80;6.20;;;;;;;14.53;40.78;101751.84;5034627;27;99799;-75
2022/04/27 03:04:22;;;;;;;8.90;6.28;;;;;;;14.59;40.62;101750.75;5037582;27;96797;-74
2022/04/27 03:06:49;;;;;;;9.52;6.05;;;;;;;14.38;40.88;101752.41;5034886;27;96704;-74
2022/04/27 03:09:15;;;;;;;14.30;6.47;;;;;;;14.29;41.34;101752.69;5034823;28;98416;-74
2022/04/27 03:11:42;;;;;;;10.57;6.03;;;;;;;14.13;41.90;101743.50;5029952;27;98797;-75
2022/04/27 03:14:08;;;;;;;10.50;6.15;;;;;;;14.12;41.11;101747.94;5020699;27;96724;-74
2022/04/27 03:16:35;;;;;;;8.20;5.85;;;;;;;14.26;41.37;101751.00;5027440;27;96779;-76
2022/04/27 03:19:03;;;;;;;8.90;6.78;;;;;;;14.16;41.35;101754.03;5020502;27;99162;-75
2022/04/27 03:21:31;;;;;;;11.00;6.68;;;;;;;14.03;41.40;101752.72;5028085;27;101365;-75
2022/04/27 03:23:58;;;;;;;10.18;6.25;;;;;;;14.16;41.53;101765.56;5025452;27;98713;-74
2022/04/27 03:26:24;;;;;;;12.57;6.32;;;;;;;14.26;40.94;101760.78;5028087;27;96822;-74
2022/04/27 03:28:51;;;;;;;9.70;6.72;;;;;;;14.04;41.55;101765.09;5027970;27;98956;-73
2022/04/27 03:31:17;;;;;;;10.57;7.22;;;;;;;14.44;40.70;101772.59;5039508;27;97670;-74
2022/04/27 03:33:44;;;;;;;9.77;6.78;;;;;;;14.07;41.55;101767.63;5038410;28;96659;-72
2022/04/27 03:36:12;;;;;;;13.55;7.18;;;;;;;14.18;41.11;101773.44;5028803;27;96695;-74
2022/04/27 03:38:39;;;;;;;10.82;6.80;;;;;;;14.20;41.40;101774.28;5032000;27;97686;-74
2022/04/27 03:41:05;;;;;;;11.27;6.80;;;;;;;14.28;40.91;101772.22;5025071;27;98838;-73
2022/04/27 03:43:32;;;;;;;9.25;6.45;;;;;;;14.50;40.75;101781.25;5032321;27;97010;-73
2022/04/27 03:45:59;;;;;;;13.93;6.78;;;;;;;14.63;40.42;101785.19;5027044;27;96851;-74
2022/04/27 03:48:26;;;;;;;18.20;6.93;;;;;;;14.64;40.09;101794.88;5034766;27;97877;-73
2022/04/27 03:50:52;;;;;;;15.15;7.32;;;;;;;14.61;40.47;101783.50;5026283;27;102256;-75
2022/04/27 03:53:20;;;;;;;13.52;7.60;;;;;;;14.50;40.66;101791.88;5028522;27;96903;-74
2022/04/27 03:55:46;;;;;;;10.90;6.78;;;;;;;14.66;40.28;101801.03;5027902;27;96924;-74
2022/04/27 03:58:13;;;;;;;11.48;7.05;;;;;;;14.44;40.78;101796.53;5028641;27;101404;-75
2022/04/27 04:00:39;;;;;;;11.18;7.18;;;;;;;14.47;40.60;101796.41;5025018;27;101064;-74
2022/04/27 04:03:06;;;;;;;13.88;7.43;;;;;;;14.49;40.64;101802.56;5034350;27;96697;-74
2022/04/27 04:05:33;;;;;;;11.70;7.20;;;;;;;14.51;40.71;101812.19;5025540;27;97030;-74
2022/04/27 04:07:59;;;;;;;10.48;7.30;;;;;;;14.13;41.72;101812.63;5021471;27;99053;-73
2022/04/27 04:10:27;;;;;;;16.48;8.15;;;;;;;13.98;41.87;101811.31;5027885;27;99293;-74
2022/04/27 04:12:53;;;;;;;10.50;6.65;;;;;;;14.16;41.93;101810.75;5020327;27;96930;-73
2022/04/27 04:15:20;;;;;;;20.42;7.63;;;;;;;14.32;42.00;101813.72;5020805;28;97164;-75
2022/04/27 04:17:46;;;;;;;13.80;7.35;;;;;;;14.49;40.85;101819.38;5023825;28;98061;-66
2022/04/27 04:20:14;;;;;;;15.60;7.40;;;;;;;14.70;40.62;101826.59;5030266;27;97497;-66
2022/04/27 04:22:40;;;;;;;13.05;7.10;;;;;;;14.80;39.98;101819.16;5029672;27;96983;-67
2022/04/27 04:30:37;;;;;;;13.85;6.97;;;;;;;14.90;40.15;101827.69;5022815;28;96818;-73
2022/04/27 04:33:04;;;;;;;11.95;7.07;;;;;;;14.65;40.33;101831.22;5026828;28;99561;-73
2022/04/27 04:35:30;;;;;;;10.90;7.03;;;;;;;14.71;40.14;101831.00;5026600;27;96821;-74
2022/04/27 04:37:57;;;;;;;18.38;7.50;;;;;;;14.84;39.97;101835.88;5024692;28;98956;-74
2022/04/27 04:40:23;;;;;;;15.93;7.50;;;;;;;15.22;38.93;101842.47;5029501;28;98871;-74
2022/04/27 04:42:50;;;;;;;15.50;7.60;;;;;;;15.31;38.87;101840.31;5022818;27;96858;-73
2022/04/27 04:45:18;;;;;;;11.48;7.40;;;;;;;14.96;39.49;101846.09;5025401;27;96911;-74
2022/04/27 04:47:44;;;;;;;9.55;6.82;;;;;;;15.12;39.46;101849.94;5019816;27;99356;-73
2022/04/27 04:50:12;;;;;;;15.82;8.70;;;;;;;15.33;39.21;101846.47;5023309;28;98853;-73
2022/04/27 04:52:39;;;;;;;15.10;8.55;;;;;;;15.65;38.29;101850.59;5022887;27;96755;-74
2022/04/27 04:55:06;;;;;;;13.43;7.88;;;;;;;15.51;38.40;101860.88;5028671;28;96873;-75
2022/04/27 04:57:33;;;;;;;17.52;9.68;;;;;;;15.74;37.90;101862.69;5025649;27;100791;-74
2022/04/27 04:59:59;;;;;;;16.77;9.77;;;;;;;16.00;37.29;101859.00;5019567;27;101093;-74
2022/04/27 05:02:31;;;;;;;13.73;7.43;;;;;;;15.94;37.28;101860.97;5028050;28;96812;-68
2022/04/27 05:04:58;;;;;;;18.27;8.45;;;;;;;16.04;36.75;101868.59;5026621;27;98421;-68
2022/04/27 05:07:24;;;;;;;13.30;7.90;;;;;;;15.74;36.75;101865.34;5027651;27;101262;-69
2022/04/27 05:09:51;;;;;;;12.25;7.60;;;;;;;15.28;37.95;101868.88;5025876;27;97784;-73
2022/04/27 05:12:19;;;;;;;13.50;8.70;;;;;;;15.47;37.41;101878.78;5021502;28;97150;-73
2022/04/27 05:14:46;;;;;;;12.35;7.78;;;;;;;15.10;38.11;101886.38;5021124;28;98823;-68
2022/04/27 05:17:12;;;;;;;14.48;8.68;;;;;;;15.17;38.14;101887.88;5029452;28;98891;-68
2022/04/27 05:19:40;;;;;;;15.02;8.77;;;;;;;15.48;37.26;101891.19;5027579;27;101840;-67
2022/04/27 05:22:07;;;;;;;18.55;9.13;;;;;;;15.76;37.13;101898.13;5025399;28;96785;-75
2022/04/27 05:24:33;;;;;;;14.32;8.43;;;;;;;15.25;37.81;101898.25;5020313;27;97162;-74
2022/04/27 05:27:00;;;;;;;17.77;8.25;;;;;;;15.28;37.93;101900.84;5021272;27;99245;-74
2022/04/27 05:32:12;;;;;;;13.23;8.25;;;;;;;15.74;36.80;101903.53;5034268;27;97038;-74
2022/04/27 05:34:40;;;;;;;14.95;8.10;;;;;;;15.36;37.13;101906.75;5031717;27;97736;-73
2022/04/27 05:37:07;;;;;;;16.95;7.75;;;;;;;15.09;37.77;101909.50;5035027;27;102626;-72
2022/04/27 05:39:34;;;;;;;17.25;8.18;;;;;;;15.63;36.71;101910.19;5034318;27;100611;-72
2022/04/27 05:42:01;;;;;;;15.48;8.52;;;;;;;15.63;36.21;101911.06;5023455;27;98480;-74
2022/04/27 05:44:28;;;;;;;21.00;8.45;;;;;;;15.51;36.64;101909.69;5038023;27;96885;-73
2022/04/27 05:46:56;;;;;;;13.80;8.45;;;;;;;15.81;35.92;101914.81;5034259;27;101926;-73
2022/04/27 05:49:22;;;;;;;19.23;8.85;;;;;;;15.98;35.37;101908.81;5026183;27;101045;-68
2022/04/27 05:51:52;;;;;;;14.43;8.38;;;;;;;16.74;34.17;101917.25;5024735;27;100113;-68
2022/04/27 05:54:21;;;;;;;16.55;7.97;;;;;;;17.08;33.31;101922.00;5024466;27;97816;-67
2022/04/27 05:56:47;;;;;;;16.95;9.18;;;;;;;16.12;34.71;101923.34;5021050;27;100823;-68
2022/04/27 05:59:14;;;;;;;16.10;8.27;;;;;;;16.00;35.05;101930.97;5019431;27;99313;-67
2022/04/27 06:01:41;;;;;;;14.90;8.68;;;;;;;16.06;34.71;101933.38;5025570;27;97460;-76
2022/04/27 06:04:08;;;;;;;13.93;8.10;;;;;;;17.24;32.94;101928.41;5030732;27;98739;-73
2022/04/27 06:06:35;;;;;;;11.73;8.43;;;;;;;17.25;32.65;101934.63;5028245;27;101740;-74
2022/04/27 06:09:03;;;;;;;13.90;7.53;;;;;;;16.71;33.86;101941.41;5031057;27;96839;-68
2022/04/27 06:11:30;;;;;;;16.30;8.05;;;;;;;17.58;32.25;101945.59;5030672;27;97786;-69
2022/04/27 06:13:57;;;;;;;16.58;8.10;;;;;;;17.33;32.71;101946.69;5019230;27;96985;-69
2022/04/27 06:16:24;;;;;;;15.88;8.95;;;;;;;17.05;33.16;101946.19;5018179;27;98120;-69
2022/04/27 06:18:51;;;;;;;18.48;10.10;;;;;;;17.76;32.28;101942.09;5018528;27;99390;-68
2022/04/27 06:21:18;;;;;;;16.50;9.18;;;;;;;17.73;32.52;101944.91;5017107;27;98171;-68
2022/04/27 06:23:45;;;;;;;20.48;9.68;;;;;;;17.84;32.53;101946.16;5019842;27;98853;-68
2022/04/27 06:26:14;;;;;;;20.40;9.38;;;;;;;17.91;32.37;101952.09;5022348;27;98988;-68
2022/04/27 06:28:41;;;;;;;22.35;10.02;;;;;;;17.73;32.33;101953.78;5016835;27;99209;-68
2022/04/27 06:31:07;;;;;;;17.92;9.60;;;;;;;16.76;34.13;101958.09;5018838;27;97444;-69
2022/04/27 06:33:34;;;;;;;19.38;9.07;;;;;;;17.34;32.99;101952.88;5020815;27;97294;-67
2022/04/27 06:36:00;;;;;;;13.80;8.88;;;;;;;17.71;32.28;101950.34;5017294;27;98880;-68
2022/04/27 06:38:27;;;;;;;16.60;9.23;;;;;;;17.43;32.52;101958.72;5013695;27;101650;-67
2022/04/27 06:40:53;;;;;;;16.15;8.93;;;;;;;16.81;33.14;101956.09;5021190;27;97479;-66
2022/04/27 06:43:21;;;;;;;20.38;8.95;;;;;;;17.47;31.93;101960.28;5021384;27;97747;-66
2022/04/27 06:45:48;;;;;;;15.48;9.40;;;;;;;18.11;31.42;101957.38;5021130;27;99027;-67
2022/04/27 06:48:15;;;;;;;15.10;8.32;;;;;;;17.96;30.97;101954.53;5020620;27;98627;-66
2022/04/27 06:50:41;;;;;;;14.55;8.50;;;;;;;17.85;30.92;101953.22;5021348;28;97348;-67
2022/04/27 06:53:09;;;;;;;12.45;7.72;;;;;;;17.09;32.19;101967.34;5020193;27;97862;-68
2022/04/27 06:55:35;;;;;;;15.05;7.75;;;;;;;18.05;31.01;101962.13;5024734;28;98906;-74
2022/04/27 06:58:02;;;;;;;13.88;8.18;;;;;;;17.59;31.17;101961.53;5018978;27;101012;-73
2022/04/27 07:00:30;;;;;;;12.57;7.25;;;;;;;18.21;30.54;101964.00;5021539;27;97897;-73
2022/04/27 07:02:57;;;;;;;13.82;7.78;;;;;;;17.69;30.98;101968.25;5016225;27;98569;-73
2022/04/27 07:05:25;;;;;;;15.60;7.40;;;;;;;17.56;31.06;101968.84;5018121;27;99028;-73
2022/04/27 07:07:52;;;;;;;14.35;7.93;;;;;;;17.82;31.04;101961.41;5015134;27;102227;-73
2022/04/27 07:10:19;;;;;;;14.00;7.32;;;;;;;18.15;30.38;101975.00;5022198;27;97252;-74
2022/04/27 07:12:47;;;;;;;20.23;8.32;;;;;;;18.55;29.89;101978.41;5028298;27;97180;-72
2022/04/27 07:15:14;;;;;;;11.30;7.72;;;;;;;17.71;31.07;101981.56;5020294;28;100727;-74
2022/04/27 07:17:42;;;;;;;16.25;7.93;;;;;;;17.46;31.70;101979.94;5022285;27;97815;-73
2022/04/27 07:20:09;;;;;;;14.70;7.78;;;;;;;17.85;31.49;101973.78;5030024;28;99372;-75
2022/04/27 07:22:36;;;;;;;13.70;8.88;;;;;;;18.16;30.62;101981.22;5031435;27;97094;-77
2022/04/27 07:25:03;;;;;;;13.98;7.03;;;;;;;18.19;30.82;101978.38;5025614;27;97671;-77
2022/04/27 07:27:31;;;;;;;13.05;6.80;;;;;;;18.66;30.05;101982.31;5032092;27;101146;-77
2022/04/27 07:29:59;;;;;;;14.73;7.40;;;;;;;19.02;29.54;101990.31;5022488;27;98807;-75
2022/04/27 07:32:25;;;;;;;12.48;7.32;;;;;;;19.09;29.37;101993.56;5023295;27;98129;-73
2022/04/27 07:34:53;;;;;;;11.15;6.45;;;;;;;19.33;28.83;101994.97;5023526;27;98554;-78
2022/04/27 07:37:20;;;;;;;16.25;8.93;;;;;;;19.27;28.72;101999.78;5015474;27;97795;-74
2022/04/27 07:39:47;;;;;;;10.70;6.00;;;;;;;18.93;29.29;101992.59;5022799;27;97446;-73
2022/04/27 07:42:15;;;;;;;10.15;6.15;;;;;;;19.02;28.84;101994.81;5022485;27;97288;-72
2022/04/27 07:44:42;;;;;;;10.73;5.93;;;;;;;18.09;30.27;101999.34;5019867;27;100738;-72
2022/04/27 07:47:09;;;;;;;11.70;8.27;;;;;;;18.11;30.06;101993.94;5021955;27;99040;-73
2022/04/27 07:49:36;;;;;;;11.82;5.70;;;;;;;18.80;28.91;101999.50;5022219;28;97248;-73
2022/04/27 07:52:05;;;;;;;8.57;4.97;;;;;;;18.32;29.32;102006.28;5021546;27;98481;-72
2022/04/27 07:54:31;;;;;;;12.48;5.13;;;;;;;18.48;28.89;102009.97;5024053;27;99568;-73
2022/04/27 07:56:57;;;;;;;9.27;5.25;;;;;;;18.85;28.24;102008.16;5021333;27;97507;-74
2022/04/27 07:59:24;;;;;;;12.45;4.97;;;;;;;18.56;28.69;102010.50;5024928;28;96872;-72
2022/04/27 08:01:51;;;;;;;11.60;4.68;;;;;;;18.41;28.63;102013.88;5017651;27;98148;-72
2022/04/27 08:04:17;;;;;;;7.22;5.20;;;;;;;18.49;28.57;102013.50;5016752;27;97709;-73
2022/04/27 08:06:44;;;;;;;10.32;4.18;;;;;;;18.82;27.99;102013.69;5022328;27;98836;-72
2022/04/27 08:09:12;;;;;;;9.90;4.15;;;;;;;19.24;26.90;102008.81;5016324;27;97919;-73
2022/04/27 08:11:40;;;;;;;9.38;3.42;;;;;;;19.60;26.31;102015.94;5021708;27;96929;-72
2022/04/27 08:14:06;;;;;;;10.32;6.15;;;;;;;19.48;26.02;102004.03;5018045;27;97678;-72
2022/04/27 08:16:33;;;;;;;7.47;2.80;;;;;;;19.40;25.93;102016.94;5018274;27;98481;-73
2022/04/27 08:18:59;;;;;;;6.95;2.50;;;;;;;19.33;25.36;102012.84;5018752;27;98751;-74
2022/04/27 08:21:27;;;;;;;4.07;3.65;;;;;;;18.70;26.53;102017.84;5017961;27;97083;-74
2022/04/27 08:23:53;;;;;;;7.20;3.60;;;;;;;19.47;26.02;102007.66;5016702;27;99307;-74
2022/04/27 08:26:22;;;;;;;5.63;3.53;;;;;;;19.67;25.88;102010.16;5015526;27;98379;-73
2022/04/27 08:28:48;;;;;;;11.05;3.72;;;;;;;19.46;26.08;102017.53;5016650;27;98517;-73
2022/04/27 08:31:17;;;;;;;9.02;3.15;;;;;;;19.65;25.79;102014.72;5019769;27;98777;-71
2022/04/27 08:33:44;;;;;;;7.97;2.95;;;;;;;20.90;24.29;102015.78;5020313;27;99496;-75
2022/04/27 08:36:11;;;;;;;5.47;3.17;;;;;;;19.99;24.71;102019.16;5016880;27;98311;-71
2022/04/27 08:38:37;;;;;;;3.10;2.70;;;;;;;19.75;24.84;102026.72;5018171;27;97057;-73
2022/04/27 08:41:04;;;;;;;5.43;2.47;;;;;;;19.42;24.29;102026.66;5018826;27;96917;-72
2022/04/27 08:43:32;;;;;;;5.00;2.90;;;;;;;19.59;24.84;102023.09;5021282;27;101709;-73
2022/04/27 08:46:02;;;;;;;5.82;3.00;;;;;;;20.13;24.10;102023.75;5016083;27;98817;-73
2022/04/27 08:48:30;;;;;;;6.97;3.53;;;;;;;20.50;24.49;102020.75;5014061;27;97927;-73
2022/04/27 08:50:58;;;;;;;5.88;3.72;;;;;;;21.25;23.71;102021.81;5021691;27;98317;-75
2022/04/27 08:53:25;;;;;;;7.15;3.83;;;;;;;21.48;23.25;102016.75;5015452;27;99255;-72
2022/04/27 08:55:53;;;;;;;46.65;4.60;;;;;;;21.35;22.73;102021.13;5013859;28;98815;-73
2022/04/27 08:58:21;;;;;;;5.55;3.30;;;;;;;20.93;23.40;102021.84;5019017;27;97700;-73
2022/04/27 09:00:49;;;;;;;6.25;3.67;;;;;;;20.20;23.61;102031.38;5014970;27;98240;-73
2022/04/27 09:03:26;;;;;;;12.02;6.15;;;;;;;19.77;24.10;102034.66;5016412;27;98967;-72
2022/04/27 09:05:54;;;;;;;6.68;3.17;;;;;;;19.95;24.22;102046.22;5027946;27;98758;-72
2022/04/27 09:08:21;;;;;;;6.57;2.42;;;;;;;20.17;23.85;102036.03;5024240;27;97870;-73
2022/04/27 09:10:48;;;;;;;7.65;2.17;;;;;;;21.05;22.52;102031.88;5028494;27;97303;-72
2022/04/27 09:13:14;;;;;;;2.30;2.10;;;;;;;20.01;22.67;102038.72;5023103;27;102768;-70
2022/04/27 09:15:42;;;;;;;6.22;2.40;;;;;;;20.15;23.08;102044.16;5021879;27;99208;-71
2022/04/27 09:21:01;;;;;;;4.60;2.63;;;;;;;19.75;24.21;102041.94;5027098;27;97240;-71
2022/04/27 09:23:29;;;;;;;7.38;3.22;;;;;;;20.03;24.05;102046.66;5023578;27;98960;-72
2022/04/27 09:25:57;;;;;;;6.72;3.38;;;;;;;21.01;22.69;102027.63;5021295;27;99470;-73
2022/04/27 09:28:24;;;;;;;7.95;2.53;;;;;;;20.33;22.69;102041.47;5024147;27;97338;-72
2022/04/27 09:30:51;;;;;;;5.57;2.25;;;;;;;20.53;22.50;102033.16;5022759;27;97470;-72
2022/04/27 09:33:33;;;;;;;6.70;2.20;;;;;;;20.13;22.82;102034.50;5020758;27;102038;-74
2022/04/27 09:36:00;;;;;;;2.88;2.00;;;;;;;19.71;22.90;102037.66;5020328;27;99467;-72
2022/04/27 09:38:27;;;;;;;4.70;2.00;;;;;;;19.92;22.18;102031.16;5020608;27;97175;-73
2022/04/27 09:40:56;;;;;;;4.00;1.73;;;;;;;19.08;23.28;102030.19;5020597;27;97306;-68
2022/04/27 09:43:42;;;;;;;5.78;1.77;;;;;;;20.50;21.48;102033.31;5021819;27;99160;-67
2022/04/27 09:46:17;;;;;;;3.92;1.88;;;;;;;20.29;21.68;102036.22;5020648;27;99273;-66
2022/04/27 09:48:46;;;;;;;3.97;2.13;;;;;;;20.75;20.97;102032.78;5016755;27;98596;-67
2022/04/27 09:51:14;;;;;;;8.05;5.15;;;;;;;20.73;20.44;102032.91;5021541;27;97284;-67
2022/04/27 09:53:42;;;;;;;3.40;1.75;;;;;;;21.26;20.36;102034.28;5027087;27;99037;-68
2022/04/27 09:56:11;;;;;;;5.45;2.25;;;;;;;21.43;20.14;102028.75;5021446;27;99465;-71
2022/04/27 09:58:43;;;;;;;5.20;1.70;;;;;;;21.21;20.77;102031.84;5022793;27;97191;-67
2022/04/27 10:01:14;;;;;;;8.30;2.20;;;;;;;21.40;21.00;102026.22;5019381;27;98830;-66
2022/04/27 10:03:42;;;;;;;2.53;1.77;;;;;;;21.56;20.87;102036.94;5019601;27;99610;-67
2022/04/27 10:06:10;;;;;;;7.45;3.25;;;;;;;21.71;20.72;102036.88;5016763;27;99311;-67
2022/04/27 10:08:40;;;;;;;5.93;2.13;;;;;;;21.27;21.15;102030.63;5022769;27;98676;-67
2022/04/27 10:11:09;;;;;;;5.50;1.92;;;;;;;22.00;20.42;102032.38;5021049;27;96788;-68
2022/04/27 10:13:36;;;;;;;2.47;1.80;;;;;;;22.26;20.01;102034.28;5025872;27;99113;-69
2022/04/27 10:16:03;;;;;;;3.38;2.28;;;;;;;22.12;20.41;102031.59;5021279;27;97368;-67
2022/04/27 10:18:30;;;;;;;2.40;1.98;;;;;;;22.62;19.80;102036.41;5024688;27;99306;-67
2022/04/27 10:21:00;;;;;;;3.33;1.40;;;;;;;21.97;20.20;102024.50;5027778;27;97022;-67
2022/04/27 10:23:31;;;;;;;5.35;2.00;;;;;;;22.00;21.15;102031.50;5024725;27;98211;-68
2022/04/27 10:26:11;;;;;;;10.50;2.35;;;;;;;21.15;21.45;102031.31;5017457;27;99265;-67
2022/04/27 10:28:40;;;;;;;6.13;2.15;;;;;;;20.90;22.01;102029.22;5019983;27;98474;-66
2022/04/27 10:31:08;;;;;;;3.63;1.80;;;;;;;21.50;21.14;102030.09;5019399;27;97828;-66
2022/04/27 10:33:50;;;;;;;2.38;1.95;;;;;;;20.66;21.58;102034.19;5020110;27;99765;-67
2022/04/27 10:36:40;;;;;;;3.53;1.85;;;;;;;21.80;20.12;102033.59;5022957;27;101307;-67
2022/04/27 10:39:20;;;;;;;6.25;2.03;;;;;;;21.91;19.93;102032.06;5018661;27;97097;-68
2022/04/27 10:42:17;;;;;;;4.60;1.63;;;;;;;22.07;20.02;102024.78;5025447;27;96813;-67
2022/04/27 10:45:04;;;;;;;4.47;1.98;;;;;;;21.92;19.94;102029.28;5014722;27;98741;-67
2022/04/27 10:47:36;;;;;;;3.08;1.38;;;;;;;21.55;19.21;102025.31;5016816;27;99017;-69
2022/04/27 10:50:33;;;;;;;2.42;1.52;;;;;;;21.17;20.07;102024.94;5020310;27;97787;-68
2022/04/27 10:53:16;;;;;;;6.25;1.92;;;;;;;21.32;20.55;102029.41;5015344;27;97708;-66
2022/04/27 10:55:55;;;;;;;10.35;1.50;;;;;;;20.91;20.75;102023.75;5018698;27;98410;-68
2022/04/27 10:58:33;;;;;;;14.75;1.90;;;;;;;20.66;21.19;102020.78;5017531;27;98848;-68
2022/04/27 11:01:27;;;;;;;7.75;1.83;;;;;;;20.33;21.76;102020.88;5013955;28;99599;-67
2022/04/27 11:03:58;;;;;;;2.88;1.42;;;;;;;20.57;21.37;102018.59;5019174;27;99161;-69
2022/04/27 11:06:25;;;;;;;4.28;2.03;;;;;;;20.85;21.12;102023.25;5015152;27;98963;-68
2022/04/27 11:09:09;;;;;;;3.25;1.55;;;;;;;21.12;21.11;102015.38;5018525;27;99449;-68
2022/04/27 11:11:51;;;;;;;6.95;2.00;;;;;;;20.35;21.78;102021.63;5020959;27;97216;-68
2022/04/27 11:14:20;;;;;;;2.75;1.60;;;;;;;20.86;21.28;102020.47;5018565;27;98576;-66
2022/04/27 11:16:48;;;;;;;7.35;2.05;;;;;;;21.10;20.94;102018.16;5016255;27;100676;-67
2022/04/27 11:19:15;;;;;;;5.75;1.60;;;;;;;21.95;20.26;102017.44;5018494;27;98991;-67
2022/04/27 11:21:41;;;;;;;4.68;2.13;;;;;;;21.67;19.96;102023.69;5015096;27;97048;-67
2022/04/27 11:24:11;;;;;;;3.15;1.90;;;;;;;21.40;20.93;102024.41;5020673;27;96864;-68
2022/04/27 11:26:43;;;;;;;4.40;1.90;;;;;;;21.30;21.33;102023.25;5014688;27;98212;-68
2022/04/27 11:29:11;;;;;;;4.03;1.92;;;;;;;21.42;21.38;102024.31;5019600;27;99827;-66
2022/04/27 11:31:38;;;;;;;2.63;1.90;;;;;;;20.66;22.09;102026.13;5016461;27;96909;-68
2022/04/27 11:34:23;;;;;;;3.03;1.85;;;;;;;21.33;21.48;102020.34;5016213;27;97347;-68
2022/04/27 11:36:51;;;;;;;4.85;1.98;;;;;;;21.53;21.73;102021.84;5025860;27;99422;-67
2022/04/27 11:39:20;;;;;;;4.82;1.58;;;;;;;20.79;21.88;102016.41;5023577;27;98871;-68
2022/04/27 11:41:57;;;;;;;9.48;2.00;;;;;;;21.68;21.13;102020.91;5025044;27;98600;-69
2022/04/27 11:44:25;;;;;;;2.33;1.63;;;;;;;21.90;20.44;102008.81;5027142;27;97040;-66